Time;durP1;ratioP1;P1;durP2;ratioP2;P2;SDS_P1;SDS_P2;PMS_P1;PMS_P2;Temp;Humidity;BMP_temperature;BMP_pressure;BME280_temperature;BME280_humidity;BME280_pressure;Samples;Min_cycle;Max_cycle;Signal;HPM_P1;HPM_P2
2022/08/28 00:00:11;;;;;;;19.30;12.55;;;;;;;18.56;75.53;99226.03;1766687;78;21033;-61
2022/08/28 00:02:40;;;;;;;26.35;12.23;;;;;;;18.54;75.53;99222.72;1758183;78;20890;-62
2022/08/28 00:05:09;;;;;;;22.60;12.35;;;;;;;18.50;75.51;99225.75;1794826;78;20931;-62
2022/08/28 00:07:37;;;;;;;15.28;11.63;;;;;;;18.47;75.49;99222.06;1797492;78;20891;-62
2022/08/28 00:10:08;;;;;;;20.32;12.15;;;;;;;18.43;75.61;99230.75;1772941;80;20913;-62
2022/08/28 00:12:37;;;;;;;16.10;12.33;;;;;;;18.39;75.75;99224.05;1776849;79;21084;-62
2022/08/28 00:15:08;;;;;;;19.80;11.83;;;;;;;18.34;75.79;99221.83;1773595;79;20897;-62
2022/08/28 00:17:35;;;;;;;17.37;13.10;;;;;;;18.29;75.94;99232.45;1779845;79;20967;-62
2022/08/28 00:20:03;;;;;;;14.68;11.93;;;;;;;18.19;75.90;99227.59;1779567;79;20931;-62
2022/08/28 00:22:30;;;;;;;18.07;11.80;;;;;;;18.06;75.93;99224.70;1793437;78;21388;-62
2022/08/28 00:24:57;;;;;;;14.75;11.25;;;;;;;17.95;76.03;99218.16;1795816;78;21054;-61
2022/08/28 00:28:06;;;;;;;13.62;10.85;;;;;;;17.87;76.12;99221.97;1774682;78;20945;-62
2022/08/28 00:29:55;;;;;;;14.53;11.43;;;;;;;17.84;76.27;99220.89;1750619;78;20969;-61
2022/08/28 00:32:22;;;;;;;16.15;11.05;;;;;;;17.78;76.32;99216.10;1778887;80;20922;-62
2022/08/28 00:34:50;;;;;;;13.75;10.25;;;;;;;17.71;76.44;99218.92;1791103;79;21405;-61
2022/08/28 00:37:17;;;;;;;11.88;10.43;;;;;;;17.66;76.55;99222.78;1779597;79;21369;-61
2022/08/28 00:39:43;;;;;;;;;;;;;;;17.61;76.66;99215.72;1777666;79;20923;-62
2022/08/28 00:42:10;;;;;;;15.38;11.57;;;;;;;17.56;76.82;99215.30;1770852;79;20108;-62
2022/08/28 00:44:37;;;;;;;19.90;10.58;;;;;;;17.47;76.77;99208.13;1771949;79;21484;-62
2022/08/28 00:47:03;;;;;;;14.60;10.63;;;;;;;17.36;76.88;99205.06;1769220;79;20938;-62
2022/08/28 00:49:34;;;;;;;15.40;11.83;;;;;;;17.29;76.96;99205.25;1795448;78;21034;-62
2022/08/28 00:52:06;;;;;;;15.83;11.57;;;;;;;17.26;77.12;99200.72;1794819;78;20899;-62
2022/08/28 00:54:53;;;;;;;13.35;10.88;;;;;;;17.28;77.32;99200.08;1794251;78;20835;-62
2022/08/28 00:57:32;;;;;;;;;;;;;;;17.32;77.46;99204.98;1796470;78;21482;-62
2022/08/28 00:59:59;;;;;;;13.72;10.75;;;;;;;17.32;77.58;99198.88;1801499;78;20067;-62
2022/08/28 01:02:26;;;;;;;13.38;10.40;;;;;;;17.26;77.50;99204.19;1799541;78;21033;-62
2022/08/28 01:04:54;;;;;;;17.52;10.98;;;;;;;17.21;77.52;99195.81;1760450;80;20979;-61
2022/08/28 01:07:22;;;;;;;13.60;10.43;;;;;;;17.14;77.62;99208.69;1795168;78;20947;-62
2022/08/28 01:09:52;;;;;;;12.30;10.43;;;;;;;17.08;77.83;99196.46;1796482;77;20934;-61
2022/08/28 01:12:27;;;;;;;15.85;10.70;;;;;;;17.04;78.01;99202.97;1784689;79;20979;-62
2022/08/28 01:14:58;;;;;;;14.00;11.18;;;;;;;16.98;78.08;99210.91;1793702;78;21084;-61
2022/08/28 01:17:30;;;;;;;16.02;10.48;;;;;;;16.89;78.02;99214.30;1738009;80;20939;-62
2022/08/28 01:20:01;;;;;;;14.40;11.05;;;;;;;16.86;78.14;99206.61;1793619;78;20852;-62
2022/08/28 01:22:46;;;;;;;18.07;11.50;;;;;;;16.84;78.26;99203.28;1792321;79;21544;-61
2022/08/28 01:25:18;;;;;;;17.12;11.78;;;;;;;16.83;78.22;99206.38;1739125;78;20951;-61
2022/08/28 01:27:44;;;;;;;13.60;10.18;;;;;;;16.75;78.22;99206.98;1783416;78;21102;-61
2022/08/28 01:30:16;;;;;;;14.28;10.75;;;;;;;16.71;78.43;99208.18;1784051;80;21018;-61
2022/08/28 01:32:48;;;;;;;16.02;11.40;;;;;;;16.67;78.58;99202.81;1793111;79;20912;-61
2022/08/28 01:35:19;;;;;;;15.32;10.58;;;;;;;16.66;78.74;99210.34;1755947;80;21503;-62
2022/08/28 01:37:46;;;;;;;12.20;10.90;;;;;;;16.66;78.78;99199.80;1783904;80;20918;-62
2022/08/28 01:40:17;;;;;;;19.48;11.05;;;;;;;16.65;78.79;99203.41;1811343;77;21420;-62
2022/08/28 01:42:44;;;;;;;14.95;10.98;;;;;;;16.64;78.94;99203.06;1806499;78;21622;-61
2022/08/28 01:45:15;;;;;;;15.63;11.30;;;;;;;16.62;79.01;99198.39;1800828;78;20856;-62
2022/08/28 01:47:43;;;;;;;12.58;10.25;;;;;;;16.64;79.11;99202.23;1787271;80;20887;-61
2022/08/28 01:50:14;;;;;;;14.30;10.23;;;;;;;16.62;79.05;99203.66;1802817;77;20934;-62
2022/08/28 01:52:41;;;;;;;16.75;10.93;;;;;;;16.57;79.10;99203.19;1803173;78;21660;-61
2022/08/28 01:55:10;;;;;;;14.38;10.50;;;;;;;16.56;79.11;99206.80;1805712;78;20875;-61
2022/08/28 01:57:46;;;;;;;11.70;10.50;;;;;;;16.55;79.18;99213.00;1767605;80;20930;-61
2022/08/28 02:00:14;;;;;;;13.95;9.83;;;;;;;16.51;79.16;99214.23;1766826;79;20979;-62
2022/08/28 02:02:40;;;;;;;17.82;10.93;;;;;;;16.46;79.24;99215.06;1772289;80;20974;-61
2022/08/28 02:05:08;;;;;;;16.30;10.15;;;;;;;16.42;79.36;99209.70;1803574;78;21990;-62
2022/08/28 02:07:36;;;;;;;14.18;10.10;;;;;;;16.40;79.46;99211.61;1782942;80;20964;-61
2022/08/28 02:10:03;;;;;;;;;;;;;;;16.38;79.48;99205.62;1772185;80;20899;-62
2022/08/28 02:12:30;;;;;;;16.27;10.85;;;;;;;16.32;79.66;99206.45;1788152;79;20121;-61
2022/08/28 02:14:57;;;;;;;18.65;10.38;;;;;;;16.29;79.65;99206.70;1793596;79;21370;-61
2022/08/28 02:17:24;;;;;;;;;;;;;;;16.25;79.72;99206.59;1799603;78;21456;-62
2022/08/28 02:19:51;;;;;;;14.90;10.40;;;;;;;16.19;79.98;99212.36;1799285;78;20440;-62
2022/08/28 02:22:18;;;;;;;16.97;10.68;;;;;;;16.16;80.00;99207.78;1783418;79;20926;-62
2022/08/28 02:24:45;;;;;;;15.93;11.95;;;;;;;16.14;80.03;99203.97;1779969;80;21452;-61
2022/08/28 02:27:12;;;;;;;14.15;10.60;;;;;;;16.13;80.09;99202.28;1776765;78;20888;-61
2022/08/28 02:29:39;;;;;;;11.60;9.73;;;;;;;16.08;80.04;99201.34;1797389;78;21493;-62
2022/08/28 02:32:06;;;;;;;23.27;10.78;;;;;;;16.01;79.99;99199.30;1771355;80;20884;-62
2022/08/28 02:34:34;;;;;;;14.50;10.75;;;;;;;15.95;80.08;99209.00;1799558;78;20957;-62
2022/08/28 02:37:02;;;;;;;13.93;10.55;;;;;;;15.96;80.29;99205.39;1783245;79;20937;-62
2022/08/28 02:39:29;;;;;;;12.25;10.43;;;;;;;15.99;80.49;99213.05;1788080;78;20921;-62
2022/08/28 02:41:56;;;;;;;12.37;9.88;;;;;;;15.99;80.53;99211.73;1792511;79;21062;-62
2022/08/28 02:44:22;;;;;;;13.43;9.80;;;;;;;15.95;80.48;99207.68;1786836;79;21423;-62
2022/08/28 02:46:49;;;;;;;19.05;11.60;;;;;;;15.94;80.65;99208.66;1792594;79;20945;-62
2022/08/28 02:49:15;;;;;;;15.35;12.07;;;;;;;15.93;80.78;99206.95;1774635;79;21456;-61
2022/08/28 02:51:42;;;;;;;14.13;10.73;;;;;;;15.95;80.86;99214.27;1769777;78;20961;-61
2022/08/28 02:54:09;;;;;;;14.38;10.45;;;;;;;15.86;81.19;99211.38;1806482;78;21018;-62
2022/08/28 02:56:36;;;;;;;13.67;10.27;;;;;;;15.87;81.10;99205.15;1809245;78;20920;-61
2022/08/28 02:59:02;;;;;;;13.65;9.63;;;;;;;15.83;80.87;99206.36;1777066;80;21619;-62
2022/08/28 03:01:29;;;;;;;13.08;10.32;;;;;;;15.76;80.87;99199.88;1784416;78;20949;-62
2022/08/28 03:03:56;;;;;;;13.45;10.13;;;;;;;15.74;80.95;99204.44;1801376;78;20986;-62
2022/08/28 03:06:23;;;;;;;;;;;;;;;15.74;81.05;99209.70;1801806;78;21756;-61
2022/08/28 03:08:50;;;;;;;15.08;11.20;;;;;;;15.71;81.28;99206.45;1800246;78;20505;-61
2022/08/28 03:11:16;;;;;;;11.43;10.17;;;;;;;15.67;81.24;99203.19;1804097;78;20906;-62
2022/08/28 03:13:43;;;;;;;13.48;9.38;;;;;;;15.65;81.25;99196.72;1798583;78;21436;-61
2022/08/28 03:16:10;;;;;;;14.40;10.23;;;;;;;15.62;81.30;99206.16;1769939;80;21002;-62
2022/08/28 03:18:37;;;;;;;17.37;10.00;;;;;;;15.54;81.30;99206.39;1803783;78;21074;-61
2022/08/28 03:21:04;;;;;;;13.75;9.18;;;;;;;15.47;81.39;99206.52;1803704;78;20949;-61
2022/08/28 03:23:30;;;;;;;;;;;;;;;15.46;81.51;99205.68;1780096;78;20973;-61
2022/08/28 03:26:07;;;;;;;13.15;10.78;;;;;;;15.42;81.83;99212.94;1777197;78;20475;-61
2022/08/28 03:28:39;;;;;;;16.70;10.53;;;;;;;15.40;81.78;99206.12;1768164;80;20978;-62
2022/08/28 03:31:08;;;;;;;11.88;10.43;;;;;;;15.38;81.96;99208.05;1774075;80;22024;-61
2022/08/28 03:33:35;;;;;;;12.00;10.10;;;;;;;15.40;81.93;99203.03;1787019;79;20918;-62
2022/08/28 03:36:03;;;;;;;13.72;10.70;;;;;;;15.42;81.89;99202.42;1796426;78;21001;-62
2022/08/28 03:38:29;;;;;;;12.35;10.65;;;;;;;15.44;81.98;99208.41;1774972;80;20879;-62
2022/08/28 03:40:56;;;;;;;16.10;10.30;;;;;;;15.47;82.17;99207.83;1768952;80;20882;-62
2022/08/28 03:43:26;;;;;;;11.68;10.25;;;;;;;15.48;82.33;99202.91;1774142;80;21035;-61
2022/08/28 03:46:03;;;;;;;15.53;10.45;;;;;;;15.49;82.40;99204.58;1777519;78;20906;-61
2022/08/28 03:48:31;;;;;;;;;;;;;;;15.49;82.50;99207.20;1794962;78;21425;-61
2022/08/28 03:50:59;;;;;;;15.00;10.45;;;;;;;15.43;82.65;99204.12;1769579;79;20088;-61
2022/08/28 03:53:28;;;;;;;12.53;10.10;;;;;;;15.40;82.56;99200.41;1768147;80;20887;-61
2022/08/28 03:55:56;;;;;;;14.80;10.55;;;;;;;15.40;82.65;99203.03;1774073;79;21168;-61
2022/08/28 03:58:25;;;;;;;14.60;9.90;;;;;;;15.39;82.66;99205.28;1776834;79;20987;-61
2022/08/28 04:00:52;;;;;;;14.98;9.93;;;;;;;15.42;82.72;99202.42;1772003;79;21451;-61
2022/08/28 04:03:20;;;;;;;12.63;10.45;;;;;;;15.52;82.83;99201.75;1773875;79;20950;-61
2022/08/28 04:05:47;;;;;;;10.95;9.23;;;;;;;15.64;82.89;99204.75;1768083;79;20937;-61
2022/08/28 04:08:15;;;;;;;;;;;;;;;15.78;82.95;99207.67;1781762;79;22036;-61
2022/08/28 04:10:44;;;;;;;13.75;9.98;;;;;;;16.00;83.36;99206.84;1771794;79;20303;-62
2022/08/28 04:13:11;;;;;;;14.78;10.80;;;;;;;16.25;83.26;99208.41;1772246;79;20957;-61
2022/08/28 04:15:39;;;;;;;14.00;10.43;;;;;;;16.51;83.28;99201.05;1773092;79;21373;-62
2022/08/28 04:18:08;;;;;;;17.15;9.98;;;;;;;16.85;83.33;99208.91;1773293;79;20922;-62
2022/08/28 04:20:34;;;;;;;17.10;10.30;;;;;;;17.17;83.03;99207.11;1772862;79;21203;-62
2022/08/28 04:23:08;;;;;;;14.30;9.35;;;;;;;17.47;82.90;99210.77;1777388;79;20898;-62
2022/08/28 04:25:30;;;;;;;12.30;9.75;;;;;;;17.86;83.03;99208.39;1763634;79;20937;-62
2022/08/28 04:27:57;;;;;;;12.30;9.40;;;;;;;18.36;82.88;99204.98;1760274;80;20898;-62
2022/08/28 04:30:24;;;;;;;12.23;8.60;;;;;;;18.73;82.24;99203.88;1761856;80;20957;-62
2022/08/28 04:32:51;;;;;;;16.15;9.05;;;;;;;19.03;81.65;99202.14;1754947;80;21062;-63
2022/08/28 04:35:17;;;;;;;16.27;8.33;;;;;;;19.37;81.48;99206.00;1760728;80;20984;-62
2022/08/28 04:37:44;;;;;;;20.05;8.28;;;;;;;19.63;80.87;99201.42;1759919;80;20910;-63
2022/08/28 04:40:13;;;;;;;12.18;8.48;;;;;;;19.88;80.50;99200.86;1755673;80;20918;-62
2022/08/28 04:42:41;;;;;;;10.55;8.88;;;;;;;20.12;80.14;99192.37;1780458;80;20992;-62
2022/08/28 04:45:08;;;;;;;16.80;8.35;;;;;;;20.38;80.06;99194.84;1780430;79;21863;-62
2022/08/28 04:47:37;;;;;;;13.55;8.18;;;;;;;20.70;80.15;99190.43;1774585;80;20901;-62
2022/08/28 04:50:06;;;;;;;13.00;8.68;;;;;;;21.17;80.20;99185.73;1779173;80;20970;-63
2022/08/28 04:52:33;;;;;;;10.10;8.20;;;;;;;21.79;80.18;99186.16;1756783;79;20985;-63
2022/08/28 04:55:00;;;;;;;15.08;8.58;;;;;;;22.33;79.46;99193.45;1754656;80;27002;-62
2022/08/28 04:57:27;;;;;;;13.10;8.13;;;;;;;22.74;79.39;99189.55;1754645;80;20968;-62
2022/08/28 04:59:53;;;;;;;8.70;7.53;;;;;;;23.31;79.65;99178.98;1759662;79;20933;-61
2022/08/28 05:02:20;;;;;;;13.72;8.43;;;;;;;23.79;78.47;99181.27;1777266;78;20958;-61
2022/08/28 05:04:47;;;;;;;;;;;;;;;23.93;77.66;99177.06;1787038;78;20958;-62
2022/08/28 05:07:13;;;;;;;;;;;;;;;24.18;76.91;99176.48;1780398;78;20141;-61
2022/08/28 05:09:39;;;;;;;;;;;;;;;24.31;75.92;99174.09;1779467;78;21100;-60
2022/08/28 05:12:06;;;;;;;;;;;;;;;24.43;75.56;99175.03;1783505;78;20516;-63
2022/08/28 05:14:33;;;;;;;12.98;8.80;;;;;;;24.74;75.51;99170.53;1741043;80;20085;-63
2022/08/28 05:17:00;;;;;;;11.55;8.48;;;;;;;25.14;75.74;99178.42;1748587;80;21447;-62
2022/08/28 05:19:27;;;;;;;16.82;7.62;;;;;;;25.53;75.33;99178.27;1756257;80;20968;-62
2022/08/28 05:21:54;;;;;;;9.38;7.40;;;;;;;25.96;75.23;99184.36;1758224;80;21045;-62
2022/08/28 05:24:21;;;;;;;12.20;7.45;;;;;;;26.43;74.51;99182.60;1748260;80;20966;-63
2022/08/28 05:26:48;;;;;;;13.18;7.72;;;;;;;26.75;73.89;99184.04;1767899;79;20984;-63
2022/08/28 05:29:15;;;;;;;11.97;7.58;;;;;;;27.07;73.23;99183.72;1768115;79;20931;-63
2022/08/28 05:31:42;;;;;;;12.20;8.03;;;;;;;27.63;73.78;99182.45;1772306;79;21035;-63
2022/08/28 05:34:09;;;;;;;12.43;7.78;;;;;;;28.06;72.62;99183.17;1776569;80;21053;-63
2022/08/28 05:36:37;;;;;;;9.28;7.42;;;;;;;28.53;72.20;99184.72;1767963;79;20920;-63
2022/08/28 05:39:09;;;;;;;11.05;8.30;;;;;;;28.80;71.08;99184.80;1774427;79;20918;-63
2022/08/28 05:41:38;;;;;;;8.38;6.87;;;;;;;29.06;70.32;99175.45;1774259;78;21448;-63
2022/08/28 05:44:08;;;;;;;13.95;8.25;;;;;;;29.04;69.36;99173.48;1782409;78;20932;-63
2022/08/28 05:46:39;;;;;;;13.08;8.78;;;;;;;29.18;69.49;99177.86;1786961;78;21396;-63
2022/08/28 05:49:06;;;;;;;12.13;8.48;;;;;;;29.03;67.99;99177.70;1773074;78;20895;-63
2022/08/28 05:51:34;;;;;;;12.23;8.30;;;;;;;28.78;67.82;99180.44;1768923;78;21012;-63
2022/08/28 05:54:01;;;;;;;13.78;8.38;;;;;;;29.23;68.34;99178.56;1772227;80;20986;-63
2022/08/28 05:56:32;;;;;;;22.75;11.70;;;;;;;29.82;67.94;99180.91;1797096;78;20925;-63
2022/08/28 05:59:01;;;;;;;16.62;10.90;;;;;;;30.14;66.96;99184.56;1798357;78;21481;-63
2022/08/28 06:01:32;;;;;;;29.55;16.37;;;;;;;30.04;65.76;99177.45;1760987;80;21434;-63
2022/08/28 06:04:16;;;;;;;19.50;9.85;;;;;;;29.71;64.50;99186.94;1780356;79;20917;-63
2022/08/28 06:06:43;;;;;;;12.10;8.33;;;;;;;29.43;64.21;99194.69;1773460;79;20926;-63
2022/08/28 06:09:23;;;;;;;9.40;8.05;;;;;;;29.33;63.75;99195.64;1770368;79;20990;-64
2022/08/28 06:11:53;;;;;;;9.45;6.90;;;;;;;29.32;63.63;99191.28;1777803;79;21763;-63
2022/08/28 06:14:20;;;;;;;12.73;7.42;;;;;;;29.43;62.80;99189.31;1778206;79;20957;-63
2022/08/28 06:16:53;;;;;;;12.30;7.67;;;;;;;29.63;62.64;99188.83;1778912;79;20941;-63
2022/08/28 06:19:22;;;;;;;14.85;8.70;;;;;;;29.70;61.86;99190.68;1774353;79;20985;-64
2022/08/28 06:21:53;;;;;;;12.63;7.70;;;;;;;29.76;61.64;99187.14;1768572;79;20996;-63
2022/08/28 06:24:19;;;;;;;11.75;8.25;;;;;;;29.86;60.94;99188.89;1769506;79;21052;-63
2022/08/28 06:26:52;;;;;;;11.03;7.87;;;;;;;29.95;61.07;99193.00;1768292;79;21580;-64
2022/08/28 06:29:21;;;;;;;16.23;7.62;;;;;;;30.26;61.51;99193.66;1776505;79;21462;-64
2022/08/28 06:31:57;;;;;;;12.40;7.50;;;;;;;30.66;60.96;99187.25;1780335;80;20958;-63
2022/08/28 06:34:25;;;;;;;13.55;7.87;;;;;;;30.90;59.94;99189.22;1772690;79;20932;-63
2022/08/28 06:36:52;;;;;;;24.10;12.20;;;;;;;30.75;59.28;99188.64;1766849;80;21001;-64
2022/08/28 06:39:19;;;;;;;21.95;10.15;;;;;;;30.75;59.45;99191.34;1774070;79;20985;-63
2022/08/28 06:41:46;;;;;;;9.13;7.10;;;;;;;31.05;59.50;99196.16;1793260;78;20922;-63
2022/08/28 06:44:18;;;;;;;7.70;6.58;;;;;;;31.13;58.79;99199.94;1791799;78;20931;-64
2022/08/28 06:46:49;;;;;;;9.70;7.12;;;;;;;31.51;59.31;99200.37;1794254;78;20954;-63
2022/08/28 06:49:16;;;;;;;8.23;6.62;;;;;;;31.98;58.55;99195.38;1766948;80;21031;-63
2022/08/28 06:51:42;;;;;;;11.57;7.05;;;;;;;31.99;57.00;99199.75;1791893;79;20860;-64
2022/08/28 06:54:09;;;;;;;9.75;7.40;;;;;;;31.33;55.64;99193.86;1777249;80;21325;-64
2022/08/28 06:56:37;;;;;;;11.05;7.33;;;;;;;30.38;55.09;99196.50;1781738;78;20902;-64
2022/08/28 06:59:04;;;;;;;12.93;7.55;;;;;;;29.92;56.39;99200.16;1766634;78;20891;-64
2022/08/28 07:01:34;;;;;;;10.48;7.25;;;;;;;30.34;57.22;99200.67;1781253;79;21015;-63
2022/08/28 07:04:08;;;;;;;13.28;8.18;;;;;;;30.86;57.19;99198.77;1775463;80;21540;-64
2022/08/28 07:06:40;;;;;;;9.85;7.78;;;;;;;31.21;56.68;99206.42;1780458;78;20910;-64
2022/08/28 07:09:12;;;;;;;12.10;7.62;;;;;;;31.22;56.23;99205.36;1792089;78;20914;-64
2022/08/28 07:11:40;;;;;;;15.03;7.40;;;;;;;31.26;55.76;99206.59;1772330;78;20933;-63
2022/08/28 07:14:07;;;;;;;10.38;7.65;;;;;;;31.07;54.96;99208.39;1759129;80;21122;-63
2022/08/28 07:16:37;;;;;;;10.50;7.30;;;;;;;30.83;55.05;99211.85;1777127;78;21858;-63
2022/08/28 07:19:07;;;;;;;9.20;7.15;;;;;;;30.81;55.12;99217.48;1797022;78;20957;-62
2022/08/28 07:21:41;;;;;;;20.75;7.22;;;;;;;30.77;55.44;99218.38;1774797;79;20889;-62
2022/08/28 07:24:10;;;;;;;11.15;7.03;;;;;;;30.70;54.60;99220.83;1784613;80;20954;-62
2022/08/28 07:26:44;;;;;;;12.63;7.53;;;;;;;30.18;54.17;99217.27;1759600;80;21180;-62
2022/08/28 07:29:13;;;;;;;9.45;7.17;;;;;;;29.84;54.50;99213.31;1781122;78;20906;-62
2022/08/28 07:31:45;;;;;;;21.02;7.72;;;;;;;29.77;54.66;99213.00;1779459;79;20903;-61
2022/08/28 07:34:14;;;;;;;15.70;8.33;;;;;;;29.45;53.77;99214.14;1777024;78;20922;-62
2022/08/28 07:36:43;;;;;;;9.00;6.92;;;;;;;28.96;53.77;99220.67;1772390;78;20962;-61
2022/08/28 07:39:12;;;;;;;14.18;7.72;;;;;;;28.44;53.44;99218.16;1781066;78;21234;-61
2022/08/28 07:41:41;;;;;;;8.53;6.97;;;;;;;28.21;54.39;99221.13;1790965;79;20910;-62
2022/08/28 07:47:02;;;;;;;22.37;7.92;;;;;;;27.89;54.18;99218.85;1796121;79;20922;-62
2022/08/28 07:49:30;;;;;;;10.98;6.70;;;;;;;28.07;54.96;99222.91;1792984;78;20914;-62
2022/08/28 07:51:57;;;;;;;13.40;6.78;;;;;;;28.11;54.56;99220.12;1792726;78;21002;-62
2022/08/28 07:54:27;;;;;;;9.68;7.90;;;;;;;28.00;54.15;99227.39;1791785;79;21385;-62
2022/08/28 07:56:54;;;;;;;13.30;7.55;;;;;;;27.74;54.09;99230.70;1768457;79;20946;-62
2022/08/28 07:59:20;;;;;;;10.90;7.65;;;;;;;27.56;54.40;99228.48;1788604;78;20932;-62
2022/08/28 08:01:50;;;;;;;8.80;7.60;;;;;;;27.70;54.94;99216.86;1791601;79;20938;-61
2022/08/28 08:04:22;;;;;;;9.53;7.50;;;;;;;27.70;54.66;99225.39;1772054;79;20915;-62
2022/08/28 08:06:52;;;;;;;8.85;7.62;;;;;;;27.62;54.84;99234.44;1771567;79;21373;-62
2022/08/28 08:09:21;;;;;;;12.35;7.67;;;;;;;27.40;54.52;99237.14;1777422;79;20886;-62
2022/08/28 08:11:48;;;;;;;14.83;8.40;;;;;;;27.16;55.10;99233.50;1773391;79;20932;-62
2022/08/28 08:14:17;;;;;;;13.25;8.33;;;;;;;27.10;55.24;99235.07;1773690;79;20908;-62
2022/08/28 08:16:46;;;;;;;10.85;8.28;;;;;;;27.22;55.63;99236.27;1767903;79;21039;-62
2022/08/28 08:19:31;;;;;;;11.35;9.18;;;;;;;27.15;55.16;99241.20;1774188;79;20936;-62
2022/08/28 08:22:01;;;;;;;10.55;9.45;;;;;;;26.94;56.16;99241.52;1757324;79;20845;-62
2022/08/28 08:24:29;;;;;;;14.10;8.83;;;;;;;26.72;56.10;99239.80;1773752;79;20904;-62
2022/08/28 08:27:00;;;;;;;14.25;9.93;;;;;;;26.61;56.60;99242.97;1779935;78;21482;-62
2022/08/28 08:29:39;;;;;;;9.60;8.20;;;;;;;26.58;56.86;99237.98;1777826;79;21101;-62
2022/08/28 08:32:09;;;;;;;10.18;8.75;;;;;;;26.48;56.87;99241.77;1774061;79;20923;-61
2022/08/28 08:34:41;;;;;;;11.18;8.23;;;;;;;26.38;56.90;99247.91;1770038;79;20922;-62
2022/08/28 08:37:08;;;;;;;16.30;8.53;;;;;;;26.24;57.29;99244.73;1766790;78;20934;-62
2022/08/28 08:39:36;;;;;;;9.08;8.08;;;;;;;26.26;57.73;99248.89;1773139;79;20995;-62
2022/08/28 08:42:08;;;;;;;10.88;8.43;;;;;;;26.54;57.91;99250.92;1778314;78;21080;-62
2022/08/28 08:44:46;;;;;;;9.88;8.55;;;;;;;26.29;58.09;99250.36;1795507;78;21833;-62
2022/08/28 08:47:36;;;;;;;8.15;7.35;;;;;;;25.87;58.21;99251.82;1795665;78;20994;-61
2022/08/28 08:50:10;;;;;;;9.40;8.25;;;;;;;25.76;58.82;99250.39;1796259;78;20931;-62
2022/08/28 08:53:02;;;;;;;9.90;8.70;;;;;;;25.41;59.56;99253.22;1761625;80;20880;-62
2022/08/28 08:55:35;;;;;;;10.25;8.75;;;;;;;25.21;59.80;99256.38;1797593;78;21044;-62
2022/08/28 08:58:17;;;;;;;9.03;8.20;;;;;;;25.28;60.33;99251.64;1762161;80;20907;-61
2022/08/28 09:00:55;;;;;;;8.05;7.35;;;;;;;25.51;60.77;99255.13;1795530;78;20927;-62
2022/08/28 09:03:33;;;;;;;8.70;7.80;;;;;;;25.63;60.52;99260.89;1793880;78;20989;-63
2022/08/28 09:06:03;;;;;;;10.68;8.60;;;;;;;25.59;61.19;99263.08;1783729;78;21515;-64
2022/08/28 09:08:43;;;;;;;9.63;8.53;;;;;;;25.37;62.04;99261.25;1769628;78;22262;-63
2022/08/28 09:11:24;;;;;;;10.58;9.53;;;;;;;25.14;62.58;99264.76;1797803;77;20973;-63
2022/08/28 09:14:26;;;;;;;9.50;8.58;;;;;;;25.03;62.12;99267.80;1764126;78;20994;-63
2022/08/28 09:16:56;;;;;;;10.65;9.58;;;;;;;25.03;62.32;99267.80;1712256;80;20931;-62
2022/08/28 09:19:28;;;;;;;10.32;9.20;;;;;;;25.40;62.54;99264.42;1734813;81;21020;-63
2022/08/28 09:22:02;;;;;;;9.73;8.83;;;;;;;25.71;62.40;99268.84;1744627;81;22011;-63
2022/08/28 09:24:36;;;;;;;13.00;8.90;;;;;;;25.85;62.04;99270.74;1749099;80;20922;-63
2022/08/28 09:27:26;;;;;;;10.65;8.70;;;;;;;25.89;62.33;99264.00;1749981;81;21456;-63
2022/08/28 09:30:09;;;;;;;9.95;8.85;;;;;;;26.19;62.64;99264.55;1753261;80;20973;-63
2022/08/28 09:32:43;;;;;;;12.65;9.15;;;;;;;26.59;62.31;99258.41;1745276;80;21500;-63
2022/08/28 09:35:26;;;;;;;11.00;9.78;;;;;;;26.62;61.73;99259.38;1748206;80;21172;-63
2022/08/28 09:37:55;;;;;;;12.35;10.93;;;;;;;26.53;60.86;99255.45;1744702;79;20954;-63
2022/08/28 09:43:27;;;;;;;11.22;10.23;;;;;;;26.71;61.54;99258.23;1745927;80;20974;-63
2022/08/28 09:46:02;;;;;;;12.03;10.48;;;;;;;26.54;61.52;99256.28;1743659;80;21025;-63
2022/08/28 09:48:42;;;;;;;12.95;11.25;;;;;;;26.78;61.96;99260.50;1745778;80;21064;-63
2022/08/28 09:51:13;;;;;;;12.43;11.05;;;;;;;26.97;61.00;99261.23;1741514;81;20977;-63
2022/08/28 09:53:54;;;;;;;13.22;11.93;;;;;;;26.98;61.81;99262.88;1806423;77;20949;-63
2022/08/28 09:56:36;;;;;;;15.23;11.45;;;;;;;27.14;61.75;99260.97;1834035;77;20898;-63
2022/08/28 09:59:10;;;;;;;14.28;11.85;;;;;;;27.21;61.48;99265.92;1832318;77;20966;-63
2022/08/28 10:02:16;;;;;;;14.68;12.05;;;;;;;27.22;61.57;99267.58;1829475;77;21041;-63
2022/08/28 10:04:53;;;;;;;13.90;11.87;;;;;;;27.21;60.88;99268.61;1830319;77;20892;-63
2022/08/28 10:07:53;;;;;;;15.25;12.78;;;;;;;26.72;61.12;99271.45;1836544;77;20998;-63
2022/08/28 10:10:53;;;;;;;14.80;11.80;;;;;;;26.89;61.68;99270.72;1771499;79;20898;-63
2022/08/28 10:13:37;;;;;;;12.40;11.18;;;;;;;27.05;60.93;99274.17;1769522;80;21008;-63
2022/08/28 10:16:14;;;;;;;13.78;11.20;;;;;;;27.10;61.79;99277.12;1782326;80;21723;-63
2022/08/28 10:18:56;;;;;;;15.83;10.98;;;;;;;27.29;61.64;99273.84;1781943;80;21072;-62
2022/08/28 10:21:45;;;;;;;13.68;10.55;;;;;;;27.38;61.43;99278.05;1780385;79;21354;-63
2022/08/28 10:24:26;;;;;;;14.93;11.50;;;;;;;27.32;61.33;99269.44;1776973;79;20927;-63
2022/08/28 10:27:12;;;;;;;12.90;10.23;;;;;;;27.40;61.33;99273.33;1772550;79;20952;-63
2022/08/28 10:29:59;;;;;;;17.12;9.63;;;;;;;27.43;60.69;99277.48;1784387;79;24654;-64
2022/08/28 10:33:12;;;;;;;15.53;10.20;;;;;;;27.09;60.84;99280.83;1776691;79;21471;-62
2022/08/28 10:36:18;;;;;;;11.60;10.45;;;;;;;27.07;60.73;99272.14;1773242;79;20965;-63
2022/08/28 10:38:57;;;;;;;11.03;9.93;;;;;;;26.86;60.20;99283.16;1664487;83;20942;-64
2022/08/28 10:41:29;;;;;;;10.48;9.48;;;;;;;26.71;60.96;99274.30;1672740;83;21535;-64
2022/08/28 10:44:00;;;;;;;11.45;10.28;;;;;;;26.71;61.01;99279.66;1670034;83;21466;-63
2022/08/28 10:46:43;;;;;;;13.72;10.38;;;;;;;26.84;61.02;99283.84;1717069;81;20934;-63
2022/08/28 10:49:41;;;;;;;11.55;10.38;;;;;;;27.01;61.51;99282.59;1726725;81;21016;-62
2022/08/28 10:52:18;;;;;;;11.80;8.95;;;;;;;26.77;60.39;99282.92;1720206;81;20996;-62
2022/08/28 10:55:14;;;;;;;15.03;10.15;;;;;;;26.56;60.79;99284.53;1720782;81;20983;-62
2022/08/28 10:57:52;;;;;;;9.70;8.70;;;;;;;26.45;60.98;99284.97;1730096;81;21054;-63
2022/08/28 11:00:22;;;;;;;11.80;9.33;;;;;;;26.41;61.19;99285.03;1726734;81;20943;-62
2022/08/28 11:03:00;;;;;;;9.85;8.43;;;;;;;26.30;61.08;99285.50;1727476;81;21002;-62
2022/08/28 11:05:33;;;;;;;11.12;8.68;;;;;;;26.32;61.83;99286.12;1723149;81;21037;-63
2022/08/28 11:08:07;;;;;;;15.78;8.88;;;;;;;26.42;61.32;99285.34;1717162;81;21244;-62
2022/08/28 11:10:50;;;;;;;9.33;7.72;;;;;;;26.45;61.68;99287.64;1726543;81;21215;-62
2022/08/28 11:13:40;;;;;;;10.38;7.47;;;;;;;26.51;62.02;99291.46;1789316;77;20878;-62
2022/08/28 11:16:30;;;;;;;13.30;7.92;;;;;;;26.39;61.66;99288.91;1811514;77;20938;-62
2022/08/28 11:19:32;;;;;;;8.55;7.22;;;;;;;26.36;61.97;99294.13;1813650;77;20936;-63
2022/08/28 11:22:24;;;;;;;8.65;6.33;;;;;;;26.22;61.91;99289.59;1806412;77;20913;-63
2022/08/28 11:24:59;;;;;;;8.65;5.72;;;;;;;26.15;62.02;99297.51;1809691;77;21708;-62
2022/08/28 11:27:38;;;;;;;12.23;6.20;;;;;;;26.10;62.04;99300.75;1816931;77;21414;-62
2022/08/28 11:30:28;;;;;;;7.78;4.90;;;;;;;25.93;61.90;99296.55;1817352;78;20948;-62
2022/08/28 11:32:59;;;;;;;6.72;5.70;;;;;;;26.10;62.12;99300.75;1815950;78;20902;-63
2022/08/28 11:35:46;;;;;;;7.50;5.72;;;;;;;26.15;62.04;99302.03;1817766;77;20960;-63
2022/08/28 11:38:35;;;;;;;7.95;4.92;;;;;;;26.27;62.05;99303.23;1817843;77;21430;-62
2022/08/28 11:41:14;;;;;;;8.23;5.17;;;;;;;26.37;61.40;99314.50;1722643;81;20879;-62
2022/08/28 11:43:44;;;;;;;9.65;5.62;;;;;;;26.15;61.37;99316.23;1724612;81;21609;-62
2022/08/28 11:46:31;;;;;;;7.85;5.28;;;;;;;26.15;61.55;99315.41;1703697;82;20966;-62
2022/08/28 11:49:02;;;;;;;8.35;5.25;;;;;;;26.21;61.27;99313.34;1692564;83;20946;-62
2022/08/28 11:51:53;;;;;;;9.28;5.20;;;;;;;26.08;61.36;99328.19;1693547;83;21110;-62
2022/08/28 11:55:01;;;;;;;7.65;5.20;;;;;;;26.14;61.29;99331.16;1693291;82;20954;-63